sensor_id;sensor_type;location;lat;lon;timestamp;temperature;humidity
21193;DHT22;10754;51.106;7.164;2023-08-06T00:01:48;19.40;1.00
21193;DHT22;10754;51.106;7.164;2023-08-06T00:04:13;19.40;1.00
21193;DHT22;10754;51.106;7.164;2023-08-06T00:06:39;19.40;1.00
21193;DHT22;10754;51.106;7.164;2023-08-06T00:09:04;19.30;1.00
21193;DHT22;10754;51.106;7.164;2023-08-06T00:11:30;19.20;1.00
21193;DHT22;10754;51.106;7.164;2023-08-06T00:13:55;19.20;1.00
21193;DHT22;10754;51.106;7.164;2023-08-06T00:16:21;19.20;1.00
21193;DHT22;10754;51.106;7.164;2023-08-06T00:18:46;19.20;1.00
21193;DHT22;10754;51.106;7.164;2023-08-06T00:21:12;19.20;1.00
21193;DHT22;10754;51.106;7.164;2023-08-06T00:23:38;19.20;1.00
21193;DHT22;10754;51.106;7.164;2023-08-06T00:26:04;19.20;1.00
21193;DHT22;10754;51.106;7.164;2023-08-06T00:28:29;19.20;1.00
21193;DHT22;10754;51.106;7.164;2023-08-06T00:30:55;19.20;1.00
21193;DHT22;10754;51.106;7.164;2023-08-06T00:33:22;19.20;1.00
21193;DHT22;10754;51.106;7.164;2023-08-06T00:35:47;19.20;1.00
21193;DHT22;10754;51.106;7.164;2023-08-06T00:38:13;19.20;1.00
21193;DHT22;10754;51.106;7.164;2023-08-06T00:40:38;19.20;1.00
21193;DHT22;10754;51.106;7.164;2023-08-06T00:43:04;19.20;1.00
21193;DHT22;10754;51.106;7.164;2023-08-06T00:45:30;19.20;1.00
21193;DHT22;10754;51.106;7.164;2023-08-06T00:47:56;19.20;1.00
21193;DHT22;10754;51.106;7.164;2023-08-06T00:50:22;19.10;1.00
21193;DHT22;10754;51.106;7.164;2023-08-06T00:52:49;19.10;1.00
21193;DHT22;10754;51.106;7.164;2023-08-06T00:55:15;19.10;1.00
21193;DHT22;10754;51.106;7.164;2023-08-06T00:57:41;19.10;1.00
21193;DHT22;10754;51.106;7.164;2023-08-06T01:00:07;19.10;1.00
21193;DHT22;10754;51.106;7.164;2023-08-06T01:02:33;19.10;1.00
21193;DHT22;10754;51.106;7.164;2023-08-06T01:04:58;19.10;1.00
21193;DHT22;10754;51.106;7.164;2023-08-06T01:07:37;19.10;1.00
21193;DHT22;10754;51.106;7.164;2023-08-06T01:10:37;19.10;1.00
21193;DHT22;10754;51.106;7.164;2023-08-06T01:13:41;19.10;1.00
21193;DHT22;10754;51.106;7.164;2023-08-06T01:16:09;19.10;1.00
21193;DHT22;10754;51.106;7.164;2023-08-06T01:18:35;19.10;1.00
21193;DHT22;10754;51.106;7.164;2023-08-06T01:21:02;19.10;1.00
21193;DHT22;10754;51.106;7.164;2023-08-06T01:23:28;19.00;1.00
21193;DHT22;10754;51.106;7.164;2023-08-06T01:28:56;19.20;1.00
21193;DHT22;10754;51.106;7.164;2023-08-06T01:31:37;19.20;1.00
21193;DHT22;10754;51.106;7.164;2023-08-06T01:34:05;19.10;1.00
21193;DHT22;10754;51.106;7.164;2023-08-06T01:36:31;19.10;1.00
21193;DHT22;10754;51.106;7.164;2023-08-06T01:38:57;19.00;1.00
21193;DHT22;10754;51.106;7.164;2023-08-06T01:41:23;19.10;1.00
21193;DHT22;10754;51.106;7.164;2023-08-06T01:43:49;19.10;1.00
21193;DHT22;10754;51.106;7.164;2023-08-06T01:46:14;19.10;1.00
21193;DHT22;10754;51.106;7.164;2023-08-06T01:48:40;19.10;1.00
21193;DHT22;10754;51.106;7.164;2023-08-06T01:51:05;19.00;1.00
21193;DHT22;10754;51.106;7.164;2023-08-06T01:53:31;19.00;1.00
21193;DHT22;10754;51.106;7.164;2023-08-06T01:55:57;19.00;1.00
21193;DHT22;10754;51.106;7.164;2023-08-06T01:58:23;19.00;1.00
21193;DHT22;10754;51.106;7.164;2023-08-06T02:00:49;19.00;1.00
21193;DHT22;10754;51.106;7.164;2023-08-06T02:03:14;19.10;1.00
21193;DHT22;10754;51.106;7.164;2023-08-06T02:05:40;19.00;1.00
21193;DHT22;10754;51.106;7.164;2023-08-06T02:08:06;19.00;1.00
21193;DHT22;10754;51.106;7.164;2023-08-06T02:10:31;18.90;1.00
21193;DHT22;10754;51.106;7.164;2023-08-06T02:12:57;18.90;1.00
21193;DHT22;10754;51.106;7.164;2023-08-06T02:15:23;18.90;1.00
21193;DHT22;10754;51.106;7.164;2023-08-06T02:17:48;19.00;1.00
21193;DHT22;10754;51.106;7.164;2023-08-06T02:20:14;18.90;1.00
21193;DHT22;10754;51.106;7.164;2023-08-06T02:22:39;18.90;1.00
21193;DHT22;10754;51.106;7.164;2023-08-06T02:25:05;19.00;1.00
21193;DHT22;10754;51.106;7.164;2023-08-06T02:27:30;19.00;1.00
21193;DHT22;10754;51.106;7.164;2023-08-06T02:29:56;19.00;1.00
21193;DHT22;10754;51.106;7.164;2023-08-06T02:32:21;19.00;1.00
21193;DHT22;10754;51.106;7.164;2023-08-06T02:34:47;19.00;1.00
21193;DHT22;10754;51.106;7.164;2023-08-06T02:37:13;19.00;1.00
21193;DHT22;10754;51.106;7.164;2023-08-06T02:39:38;19.00;1.00
21193;DHT22;10754;51.106;7.164;2023-08-06T02:42:06;19.00;1.00
21193;DHT22;10754;51.106;7.164;2023-08-06T02:44:32;19.00;1.00
21193;DHT22;10754;51.106;7.164;2023-08-06T02:46:59;19.00;1.00
21193;DHT22;10754;51.106;7.164;2023-08-06T02:49:24;19.00;1.00
21193;DHT22;10754;51.106;7.164;2023-08-06T02:51:50;19.00;1.00
21193;DHT22;10754;51.106;7.164;2023-08-06T02:54:16;19.00;1.00
21193;DHT22;10754;51.106;7.164;2023-08-06T02:56:45;19.00;1.00
21193;DHT22;10754;51.106;7.164;2023-08-06T02:59:11;19.00;1.00
21193;DHT22;10754;51.106;7.164;2023-08-06T03:01:37;19.00;1.00
21193;DHT22;10754;51.106;7.164;2023-08-06T03:04:03;19.00;1.00
21193;DHT22;10754;51.106;7.164;2023-08-06T03:06:28;19.00;1.00
21193;DHT22;10754;51.106;7.164;2023-08-06T03:08:54;19.10;1.00
21193;DHT22;10754;51.106;7.164;2023-08-06T03:11:20;19.00;1.00
21193;DHT22;10754;51.106;7.164;2023-08-06T03:13:46;19.10;1.00
21193;DHT22;10754;51.106;7.164;2023-08-06T03:16:11;19.20;1.00
21193;DHT22;10754;51.106;7.164;2023-08-06T03:18:37;19.20;1.00
21193;DHT22;10754;51.106;7.164;2023-08-06T03:21:03;19.10;1.00
21193;DHT22;10754;51.106;7.164;2023-08-06T03:23:28;19.10;1.00
21193;DHT22;10754;51.106;7.164;2023-08-06T03:25:54;19.10;1.00
21193;DHT22;10754;51.106;7.164;2023-08-06T03:28:19;19.10;1.00
21193;DHT22;10754;51.106;7.164;2023-08-06T03:30:45;19.00;1.00
21193;DHT22;10754;51.106;7.164;2023-08-06T03:33:10;19.10;1.00
21193;DHT22;10754;51.106;7.164;2023-08-06T03:35:36;19.10;1.00
21193;DHT22;10754;51.106;7.164;2023-08-06T03:38:01;19.10;1.00
21193;DHT22;10754;51.106;7.164;2023-08-06T03:40:27;19.00;1.00
21193;DHT22;10754;51.106;7.164;2023-08-06T03:42:52;19.00;1.00
21193;DHT22;10754;51.106;7.164;2023-08-06T03:45:18;18.90;1.00
21193;DHT22;10754;51.106;7.164;2023-08-06T03:47:43;18.90;1.00
21193;DHT22;10754;51.106;7.164;2023-08-06T03:50:09;18.90;1.00
21193;DHT22;10754;51.106;7.164;2023-08-06T03:52:35;18.90;1.00
21193;DHT22;10754;51.106;7.164;2023-08-06T03:55:00;18.90;1.00
21193;DHT22;10754;51.106;7.164;2023-08-06T03:57:26;18.90;1.00
21193;DHT22;10754;51.106;7.164;2023-08-06T03:59:51;19.00;1.00
21193;DHT22;10754;51.106;7.164;2023-08-06T04:02:17;19.10;1.00
21193;DHT22;10754;51.106;7.164;2023-08-06T04:04:42;19.10;1.00
21193;DHT22;10754;51.106;7.164;2023-08-06T04:07:08;19.20;1.00
21193;DHT22;10754;51.106;7.164;2023-08-06T04:09:34;19.30;1.00
21193;DHT22;10754;51.106;7.164;2023-08-06T04:12:16;19.20;1.00
21193;DHT22;10754;51.106;7.164;2023-08-06T04:14:41;19.20;1.00
21193;DHT22;10754;51.106;7.164;2023-08-06T04:17:07;19.10;1.00
21193;DHT22;10754;51.106;7.164;2023-08-06T04:19:32;19.00;1.00
21193;DHT22;10754;51.106;7.164;2023-08-06T04:21:57;19.00;1.00
21193;DHT22;10754;51.106;7.164;2023-08-06T04:24:23;18.90;1.00
21193;DHT22;10754;51.106;7.164;2023-08-06T04:26:48;18.90;1.00
21193;DHT22;10754;51.106;7.164;2023-08-06T04:29:14;19.00;1.00
21193;DHT22;10754;51.106;7.164;2023-08-06T04:31:39;19.00;1.00
21193;DHT22;10754;51.106;7.164;2023-08-06T04:34:05;19.00;1.00
21193;DHT22;10754;51.106;7.164;2023-08-06T04:36:31;19.10;1.00
21193;DHT22;10754;51.106;7.164;2023-08-06T04:38:56;19.00;1.00
21193;DHT22;10754;51.106;7.164;2023-08-06T04:41:22;19.00;1.00
21193;DHT22;10754;51.106;7.164;2023-08-06T04:43:47;18.90;1.00
21193;DHT22;10754;51.106;7.164;2023-08-06T04:46:13;18.90;1.00
21193;DHT22;10754;51.106;7.164;2023-08-06T04:48:38;18.90;1.00
21193;DHT22;10754;51.106;7.164;2023-08-06T04:51:04;18.90;1.00
21193;DHT22;10754;51.106;7.164;2023-08-06T04:53:29;19.00;1.00
21193;DHT22;10754;51.106;7.164;2023-08-06T04:55:55;19.00;1.00
21193;DHT22;10754;51.106;7.164;2023-08-06T04:58:20;19.00;1.00
21193;DHT22;10754;51.106;7.164;2023-08-06T05:00:45;19.00;1.00
21193;DHT22;10754;51.106;7.164;2023-08-06T05:03:11;19.00;1.00
21193;DHT22;10754;51.106;7.164;2023-08-06T05:05:37;19.00;1.00
21193;DHT22;10754;51.106;7.164;2023-08-06T05:08:04;19.10;1.00
21193;DHT22;10754;51.106;7.164;2023-08-06T05:10:30;19.10;1.00
21193;DHT22;10754;51.106;7.164;2023-08-06T05:12:55;19.10;1.00
21193;DHT22;10754;51.106;7.164;2023-08-06T05:15:21;19.00;1.00
21193;DHT22;10754;51.106;7.164;2023-08-06T05:17:47;19.10;1.00
21193;DHT22;10754;51.106;7.164;2023-08-06T05:20:13;19.10;1.00
21193;DHT22;10754;51.106;7.164;2023-08-06T05:22:38;19.10;1.00
21193;DHT22;10754;51.106;7.164;2023-08-06T05:25:04;19.10;1.00
21193;DHT22;10754;51.106;7.164;2023-08-06T05:27:30;19.20;1.00
21193;DHT22;10754;51.106;7.164;2023-08-06T05:29:55;19.20;1.00
21193;DHT22;10754;51.106;7.164;2023-08-06T05:32:24;19.10;1.00
21193;DHT22;10754;51.106;7.164;2023-08-06T05:34:49;19.10;1.00
21193;DHT22;10754;51.106;7.164;2023-08-06T05:37:15;19.20;1.00
21193;DHT22;10754;51.106;7.164;2023-08-06T05:39:40;19.10;1.00
21193;DHT22;10754;51.106;7.164;2023-08-06T05:42:06;19.20;1.00
21193;DHT22;10754;51.106;7.164;2023-08-06T05:44:32;19.20;1.00
21193;DHT22;10754;51.106;7.164;2023-08-06T05:46:57;19.20;1.00
21193;DHT22;10754;51.106;7.164;2023-08-06T05:49:23;19.20;1.00
21193;DHT22;10754;51.106;7.164;2023-08-06T05:51:48;19.20;1.00
21193;DHT22;10754;51.106;7.164;2023-08-06T05:54:14;19.20;1.00
21193;DHT22;10754;51.106;7.164;2023-08-06T05:56:39;19.20;1.00
21193;DHT22;10754;51.106;7.164;2023-08-06T05:59:05;19.20;1.00
21193;DHT22;10754;51.106;7.164;2023-08-06T06:01:30;19.20;1.00
21193;DHT22;10754;51.106;7.164;2023-08-06T06:03:56;19.20;1.00
21193;DHT22;10754;51.106;7.164;2023-08-06T06:06:21;19.30;1.00
21193;DHT22;10754;51.106;7.164;2023-08-06T06:08:47;19.30;1.00
21193;DHT22;10754;51.106;7.164;2023-08-06T06:11:12;19.30;1.00
21193;DHT22;10754;51.106;7.164;2023-08-06T06:13:38;19.30;1.00
21193;DHT22;10754;51.106;7.164;2023-08-06T06:16:04;19.40;1.00
21193;DHT22;10754;51.106;7.164;2023-08-06T06:18:30;19.40;1.00
21193;DHT22;10754;51.106;7.164;2023-08-06T06:20:56;19.40;1.00
21193;DHT22;10754;51.106;7.164;2023-08-06T06:23:21;19.40;1.00
21193;DHT22;10754;51.106;7.164;2023-08-06T06:25:48;19.50;1.00
21193;DHT22;10754;51.106;7.164;2023-08-06T06:28:14;19.50;1.00
21193;DHT22;10754;51.106;7.164;2023-08-06T06:30:41;19.50;1.00
21193;DHT22;10754;51.106;7.164;2023-08-06T06:33:07;19.50;1.00
21193;DHT22;10754;51.106;7.164;2023-08-06T06:35:33;19.60;1.00
21193;DHT22;10754;51.106;7.164;2023-08-06T06:37:58;19.70;1.00
21193;DHT22;10754;51.106;7.164;2023-08-06T06:40:24;19.70;1.00
21193;DHT22;10754;51.106;7.164;2023-08-06T06:42:49;19.70;1.00
21193;DHT22;10754;51.106;7.164;2023-08-06T06:45:15;19.70;1.00
21193;DHT22;10754;51.106;7.164;2023-08-06T06:47:43;19.70;1.00
21193;DHT22;10754;51.106;7.164;2023-08-06T06:50:09;19.70;1.00
21193;DHT22;10754;51.106;7.164;2023-08-06T06:52:35;19.80;1.00
21193;DHT22;10754;51.106;7.164;2023-08-06T06:55:00;19.80;1.00
21193;DHT22;10754;51.106;7.164;2023-08-06T06:57:26;19.70;1.00
21193;DHT22;10754;51.106;7.164;2023-08-06T06:59:52;19.80;1.00
21193;DHT22;10754;51.106;7.164;2023-08-06T07:02:17;19.70;1.00
21193;DHT22;10754;51.106;7.164;2023-08-06T07:04:43;19.70;1.00
21193;DHT22;10754;51.106;7.164;2023-08-06T07:07:08;19.70;1.00
21193;DHT22;10754;51.106;7.164;2023-08-06T07:09:34;19.70;1.00
21193;DHT22;10754;51.106;7.164;2023-08-06T07:11:59;19.80;1.00
21193;DHT22;10754;51.106;7.164;2023-08-06T07:14:25;19.80;1.00
21193;DHT22;10754;51.106;7.164;2023-08-06T07:16:51;20.10;1.00
21193;DHT22;10754;51.106;7.164;2023-08-06T07:19:17;19.90;1.00
21193;DHT22;10754;51.106;7.164;2023-08-06T07:21:42;19.90;1.00
21193;DHT22;10754;51.106;7.164;2023-08-06T07:24:08;19.90;1.00
21193;DHT22;10754;51.106;7.164;2023-08-06T07:26:33;20.00;1.00
21193;DHT22;10754;51.106;7.164;2023-08-06T07:28:59;20.00;1.00
21193;DHT22;10754;51.106;7.164;2023-08-06T07:31:24;19.90;1.00
21193;DHT22;10754;51.106;7.164;2023-08-06T07:33:50;19.90;1.00
21193;DHT22;10754;51.106;7.164;2023-08-06T07:36:16;20.00;1.00
21193;DHT22;10754;51.106;7.164;2023-08-06T07:38:41;19.90;1.00
21193;DHT22;10754;51.106;7.164;2023-08-06T07:41:08;20.00;1.00
21193;DHT22;10754;51.106;7.164;2023-08-06T07:43:34;19.90;1.00
21193;DHT22;10754;51.106;7.164;2023-08-06T07:46:01;19.90;1.00
21193;DHT22;10754;51.106;7.164;2023-08-06T07:48:27;20.00;1.00
21193;DHT22;10754;51.106;7.164;2023-08-06T07:50:56;20.10;1.00
21193;DHT22;10754;51.106;7.164;2023-08-06T07:53:23;20.10;1.00
21193;DHT22;10754;51.106;7.164;2023-08-06T07:55:52;20.10;1.00
21193;DHT22;10754;51.106;7.164;2023-08-06T07:58:19;20.00;1.00
21193;DHT22;10754;51.106;7.164;2023-08-06T08:00:45;20.00;1.00
21193;DHT22;10754;51.106;7.164;2023-08-06T08:03:12;20.00;1.00
21193;DHT22;10754;51.106;7.164;2023-08-06T08:05:39;20.00;1.00
21193;DHT22;10754;51.106;7.164;2023-08-06T08:08:04;19.90;1.00
21193;DHT22;10754;51.106;7.164;2023-08-06T08:10:31;19.90;1.00
21193;DHT22;10754;51.106;7.164;2023-08-06T08:12:57;19.90;1.00
21193;DHT22;10754;51.106;7.164;2023-08-06T08:15:22;19.90;1.00
21193;DHT22;10754;51.106;7.164;2023-08-06T08:17:48;19.90;1.00
21193;DHT22;10754;51.106;7.164;2023-08-06T08:20:15;19.90;1.00
21193;DHT22;10754;51.106;7.164;2023-08-06T08:22:40;19.90;1.00
21193;DHT22;10754;51.106;7.164;2023-08-06T08:25:06;19.90;1.00
21193;DHT22;10754;51.106;7.164;2023-08-06T08:27:31;19.90;1.00
21193;DHT22;10754;51.106;7.164;2023-08-06T08:29:57;20.00;1.00
21193;DHT22;10754;51.106;7.164;2023-08-06T08:32:23;20.00;1.00
21193;DHT22;10754;51.106;7.164;2023-08-06T08:34:49;20.00;1.00
21193;DHT22;10754;51.106;7.164;2023-08-06T08:37:14;20.00;1.00
21193;DHT22;10754;51.106;7.164;2023-08-06T08:39:40;20.10;1.00
21193;DHT22;10754;51.106;7.164;2023-08-06T08:42:06;20.00;1.00
21193;DHT22;10754;51.106;7.164;2023-08-06T08:44:32;20.10;1.00
21193;DHT22;10754;51.106;7.164;2023-08-06T08:46:59;20.10;1.00
21193;DHT22;10754;51.106;7.164;2023-08-06T08:49:27;20.20;1.00
21193;DHT22;10754;51.106;7.164;2023-08-06T08:51:54;20.20;1.00
21193;DHT22;10754;51.106;7.164;2023-08-06T08:54:23;20.20;1.00
21193;DHT22;10754;51.106;7.164;2023-08-06T08:56:49;20.40;1.00
21193;DHT22;10754;51.106;7.164;2023-08-06T08:59:14;20.40;1.00
21193;DHT22;10754;51.106;7.164;2023-08-06T09:01:41;20.40;1.00
21193;DHT22;10754;51.106;7.164;2023-08-06T09:04:08;20.30;1.00
21193;DHT22;10754;51.106;7.164;2023-08-06T09:06:37;20.40;1.00
21193;DHT22;10754;51.106;7.164;2023-08-06T09:09:09;20.40;1.00
21193;DHT22;10754;51.106;7.164;2023-08-06T09:11:43;20.40;1.00
21193;DHT22;10754;51.106;7.164;2023-08-06T09:14:09;20.40;1.00
21193;DHT22;10754;51.106;7.164;2023-08-06T09:16:35;20.40;1.00
21193;DHT22;10754;51.106;7.164;2023-08-06T09:19:09;20.40;1.00
21193;DHT22;10754;51.106;7.164;2023-08-06T09:21:39;20.40;1.00
21193;DHT22;10754;51.106;7.164;2023-08-06T09:24:12;20.40;1.00
21193;DHT22;10754;51.106;7.164;2023-08-06T09:26:39;20.50;1.00
21193;DHT22;10754;51.106;7.164;2023-08-06T09:29:08;20.50;1.00
21193;DHT22;10754;51.106;7.164;2023-08-06T09:31:43;20.60;1.00
21193;DHT22;10754;51.106;7.164;2023-08-06T09:34:16;20.70;1.00
21193;DHT22;10754;51.106;7.164;2023-08-06T09:36:43;20.70;1.00
21193;DHT22;10754;51.106;7.164;2023-08-06T09:39:16;20.80;1.00
21193;DHT22;10754;51.106;7.164;2023-08-06T09:41:43;20.90;1.00
21193;DHT22;10754;51.106;7.164;2023-08-06T09:44:20;20.90;1.00
21193;DHT22;10754;51.106;7.164;2023-08-06T09:46:57;21.00;1.00
21193;DHT22;10754;51.106;7.164;2023-08-06T09:49:28;21.00;1.00
21193;DHT22;10754;51.106;7.164;2023-08-06T09:51:54;21.10;1.00
21193;DHT22;10754;51.106;7.164;2023-08-06T09:54:24;21.20;1.00
21193;DHT22;10754;51.106;7.164;2023-08-06T09:56:50;21.20;1.00
21193;DHT22;10754;51.106;7.164;2023-08-06T09:59:17;21.50;1.00
21193;DHT22;10754;51.106;7.164;2023-08-06T10:01:42;21.50;1.00
21193;DHT22;10754;51.106;7.164;2023-08-06T10:04:08;21.50;1.00
21193;DHT22;10754;51.106;7.164;2023-08-06T10:06:35;21.40;1.00
21193;DHT22;10754;51.106;7.164;2023-08-06T10:09:02;21.50;1.00
21193;DHT22;10754;51.106;7.164;2023-08-06T10:11:29;21.40;1.00
21193;DHT22;10754;51.106;7.164;2023-08-06T10:14:02;21.50;1.00
21193;DHT22;10754;51.106;7.164;2023-08-06T10:16:29;21.50;1.00
21193;DHT22;10754;51.106;7.164;2023-08-06T10:18:55;21.40;1.00
21193;DHT22;10754;51.106;7.164;2023-08-06T10:21:23;21.40;1.00
21193;DHT22;10754;51.106;7.164;2023-08-06T10:23:54;21.50;1.00
21193;DHT22;10754;51.106;7.164;2023-08-06T10:26:20;21.50;1.00
21193;DHT22;10754;51.106;7.164;2023-08-06T10:28:45;21.40;1.00
21193;DHT22;10754;51.106;7.164;2023-08-06T10:31:11;21.40;1.00
21193;DHT22;10754;51.106;7.164;2023-08-06T10:33:47;21.20;1.00
21193;DHT22;10754;51.106;7.164;2023-08-06T10:36:14;21.20;1.00
21193;DHT22;10754;51.106;7.164;2023-08-06T10:38:49;21.00;1.00
21193;DHT22;10754;51.106;7.164;2023-08-06T10:41:29;20.80;1.00
21193;DHT22;10754;51.106;7.164;2023-08-06T10:44:08;20.70;1.00
21193;DHT22;10754;51.106;7.164;2023-08-06T10:46:34;20.60;1.00
21193;DHT22;10754;51.106;7.164;2023-08-06T10:48:59;20.50;1.00
21193;DHT22;10754;51.106;7.164;2023-08-06T10:51:26;20.50;1.00
21193;DHT22;10754;51.106;7.164;2023-08-06T10:53:53;20.50;1.00
21193;DHT22;10754;51.106;7.164;2023-08-06T10:56:23;20.40;1.00
21193;DHT22;10754;51.106;7.164;2023-08-06T10:58:50;20.50;1.00
21193;DHT22;10754;51.106;7.164;2023-08-06T11:01:16;20.30;1.00
21193;DHT22;10754;51.106;7.164;2023-08-06T11:03:43;20.40;1.00
21193;DHT22;10754;51.106;7.164;2023-08-06T11:06:10;20.50;1.00
21193;DHT22;10754;51.106;7.164;2023-08-06T11:08:38;20.50;1.00
21193;DHT22;10754;51.106;7.164;2023-08-06T11:11:14;20.60;1.00
21193;DHT22;10754;51.106;7.164;2023-08-06T11:13:41;20.50;1.00
21193;DHT22;10754;51.106;7.164;2023-08-06T11:16:08;20.40;1.00
21193;DHT22;10754;51.106;7.164;2023-08-06T11:18:34;20.40;1.00
21193;DHT22;10754;51.106;7.164;2023-08-06T11:21:00;20.20;1.00
21193;DHT22;10754;51.106;7.164;2023-08-06T11:23:29;19.90;1.00
21193;DHT22;10754;51.106;7.164;2023-08-06T11:25:58;19.90;1.00
21193;DHT22;10754;51.106;7.164;2023-08-06T11:28:24;19.80;1.00
21193;DHT22;10754;51.106;7.164;2023-08-06T11:30:50;19.70;1.00
21193;DHT22;10754;51.106;7.164;2023-08-06T11:33:23;19.70;1.00
21193;DHT22;10754;51.106;7.164;2023-08-06T11:35:51;19.80;1.00
21193;DHT22;10754;51.106;7.164;2023-08-06T11:38:17;19.70;1.00
21193;DHT22;10754;51.106;7.164;2023-08-06T11:40:47;19.70;1.00
21193;DHT22;10754;51.106;7.164;2023-08-06T11:43:13;19.70;1.00
21193;DHT22;10754;51.106;7.164;2023-08-06T11:45:40;19.60;1.00
21193;DHT22;10754;51.106;7.164;2023-08-06T11:48:06;19.30;1.00
21193;DHT22;10754;51.106;7.164;2023-08-06T11:50:37;19.40;1.00
21193;DHT22;10754;51.106;7.164;2023-08-06T11:53:03;19.30;1.00
21193;DHT22;10754;51.106;7.164;2023-08-06T11:55:29;19.30;1.00
21193;DHT22;10754;51.106;7.164;2023-08-06T11:57:55;19.30;1.00
21193;DHT22;10754;51.106;7.164;2023-08-06T12:00:23;19.20;1.00
21193;DHT22;10754;51.106;7.164;2023-08-06T12:02:50;19.30;1.00
21193;DHT22;10754;51.106;7.164;2023-08-06T12:05:28;19.20;1.00
21193;DHT22;10754;51.106;7.164;2023-08-06T12:07:58;19.20;1.00
21193;DHT22;10754;51.106;7.164;2023-08-06T12:10:25;19.20;1.00
21193;DHT22;10754;51.106;7.164;2023-08-06T12:12:51;19.20;1.00
21193;DHT22;10754;51.106;7.164;2023-08-06T12:15:16;19.20;1.00
21193;DHT22;10754;51.106;7.164;2023-08-06T12:17:42;19.20;1.00
21193;DHT22;10754;51.106;7.164;2023-08-06T12:20:09;19.20;1.00
21193;DHT22;10754;51.106;7.164;2023-08-06T12:22:35;19.20;1.00
21193;DHT22;10754;51.106;7.164;2023-08-06T12:25:08;19.20;1.00
21193;DHT22;10754;51.106;7.164;2023-08-06T12:27:35;19.20;1.00
21193;DHT22;10754;51.106;7.164;2023-08-06T12:30:01;19.20;1.00
21193;DHT22;10754;51.106;7.164;2023-08-06T12:32:26;19.30;1.00
21193;DHT22;10754;51.106;7.164;2023-08-06T12:34:52;19.30;1.00
21193;DHT22;10754;51.106;7.164;2023-08-06T12:37:17;19.30;1.00
21193;DHT22;10754;51.106;7.164;2023-08-06T12:39:43;19.30;1.00
21193;DHT22;10754;51.106;7.164;2023-08-06T12:42:08;19.30;1.00
21193;DHT22;10754;51.106;7.164;2023-08-06T12:44:35;19.20;1.00
21193;DHT22;10754;51.106;7.164;2023-08-06T12:47:01;19.20;1.00
21193;DHT22;10754;51.106;7.164;2023-08-06T12:49:26;19.10;1.00
21193;DHT22;10754;51.106;7.164;2023-08-06T12:51:54;19.10;1.00
21193;DHT22;10754;51.106;7.164;2023-08-06T12:54:20;19.00;1.00
21193;DHT22;10754;51.106;7.164;2023-08-06T12:56:47;19.00;1.00
21193;DHT22;10754;51.106;7.164;2023-08-06T12:59:16;19.00;1.00
21193;DHT22;10754;51.106;7.164;2023-08-06T13:01:42;19.00;1.00
21193;DHT22;10754;51.106;7.164;2023-08-06T13:04:08;18.90;1.00
21193;DHT22;10754;51.106;7.164;2023-08-06T13:06:34;19.00;1.00
21193;DHT22;10754;51.106;7.164;2023-08-06T13:09:08;19.10;1.00
21193;DHT22;10754;51.106;7.164;2023-08-06T13:11:35;19.20;1.00
21193;DHT22;10754;51.106;7.164;2023-08-06T13:14:08;19.20;1.00
21193;DHT22;10754;51.106;7.164;2023-08-06T13:16:35;19.20;1.00
21193;DHT22;10754;51.106;7.164;2023-08-06T13:19:01;19.10;1.00
21193;DHT22;10754;51.106;7.164;2023-08-06T13:21:36;19.20;1.00
21193;DHT22;10754;51.106;7.164;2023-08-06T13:24:17;19.20;1.00
21193;DHT22;10754;51.106;7.164;2023-08-06T13:26:42;19.40;1.00
21193;DHT22;10754;51.106;7.164;2023-08-06T13:29:08;19.50;1.00
21193;DHT22;10754;51.106;7.164;2023-08-06T13:31:33;19.40;1.00
21193;DHT22;10754;51.106;7.164;2023-08-06T13:33:59;19.40;1.00
21193;DHT22;10754;51.106;7.164;2023-08-06T13:36:26;19.40;1.00
21193;DHT22;10754;51.106;7.164;2023-08-06T13:38:51;19.40;1.00
21193;DHT22;10754;51.106;7.164;2023-08-06T13:41:17;19.40;1.00
21193;DHT22;10754;51.106;7.164;2023-08-06T13:43:43;19.50;1.00
21193;DHT22;10754;51.106;7.164;2023-08-06T13:46:10;19.50;1.00
21193;DHT22;10754;51.106;7.164;2023-08-06T13:48:40;19.50;1.00
21193;DHT22;10754;51.106;7.164;2023-08-06T13:51:05;19.40;1.00
21193;DHT22;10754;51.106;7.164;2023-08-06T13:53:31;19.40;1.00
21193;DHT22;10754;51.106;7.164;2023-08-06T13:55:56;19.40;1.00
21193;DHT22;10754;51.106;7.164;2023-08-06T13:58:23;19.40;1.00
21193;DHT22;10754;51.106;7.164;2023-08-06T14:00:49;19.50;1.00
21193;DHT22;10754;51.106;7.164;2023-08-06T14:03:15;19.40;1.00
21193;DHT22;10754;51.106;7.164;2023-08-06T14:05:41;19.40;1.00
21193;DHT22;10754;51.106;7.164;2023-08-06T14:08:06;19.40;1.00
21193;DHT22;10754;51.106;7.164;2023-08-06T14:10:32;19.40;1.00
21193;DHT22;10754;51.106;7.164;2023-08-06T14:12:57;19.50;1.00
21193;DHT22;10754;51.106;7.164;2023-08-06T14:15:23;19.40;1.00
21193;DHT22;10754;51.106;7.164;2023-08-06T14:17:48;19.60;1.00
21193;DHT22;10754;51.106;7.164;2023-08-06T14:20:14;19.50;1.00
21193;DHT22;10754;51.106;7.164;2023-08-06T14:22:40;19.60;1.00
21193;DHT22;10754;51.106;7.164;2023-08-06T14:25:06;19.60;1.00
21193;DHT22;10754;51.106;7.164;2023-08-06T14:27:32;19.40;1.00
21193;DHT22;10754;51.106;7.164;2023-08-06T14:29:57;19.50;1.00
21193;DHT22;10754;51.106;7.164;2023-08-06T14:32:23;19.40;1.00
21193;DHT22;10754;51.106;7.164;2023-08-06T14:34:48;19.50;1.00
21193;DHT22;10754;51.106;7.164;2023-08-06T14:37:14;19.60;1.00
21193;DHT22;10754;51.106;7.164;2023-08-06T14:39:40;19.70;1.00
21193;DHT22;10754;51.106;7.164;2023-08-06T14:42:05;19.70;1.00
21193;DHT22;10754;51.106;7.164;2023-08-06T14:44:31;19.80;1.00
21193;DHT22;10754;51.106;7.164;2023-08-06T14:46:56;19.80;1.00
21193;DHT22;10754;51.106;7.164;2023-08-06T14:49:23;19.90;1.00
21193;DHT22;10754;51.106;7.164;2023-08-06T14:51:48;20.00;1.00
21193;DHT22;10754;51.106;7.164;2023-08-06T14:54:14;20.00;1.00
21193;DHT22;10754;51.106;7.164;2023-08-06T14:56:39;19.90;1.00
21193;DHT22;10754;51.106;7.164;2023-08-06T14:59:05;20.10;1.00
21193;DHT22;10754;51.106;7.164;2023-08-06T15:01:31;20.10;1.00
21193;DHT22;10754;51.106;7.164;2023-08-06T15:03:56;20.20;1.00
21193;DHT22;10754;51.106;7.164;2023-08-06T15:06:21;20.10;1.00
21193;DHT22;10754;51.106;7.164;2023-08-06T15:08:47;20.00;1.00
21193;DHT22;10754;51.106;7.164;2023-08-06T15:11:13;20.00;1.00
21193;DHT22;10754;51.106;7.164;2023-08-06T15:13:40;20.00;1.00
21193;DHT22;10754;51.106;7.164;2023-08-06T15:16:05;20.00;1.00
21193;DHT22;10754;51.106;7.164;2023-08-06T15:18:31;20.10;1.00
21193;DHT22;10754;51.106;7.164;2023-08-06T15:20:57;20.10;1.00
21193;DHT22;10754;51.106;7.164;2023-08-06T15:23:25;20.00;1.00
21193;DHT22;10754;51.106;7.164;2023-08-06T15:25:51;19.90;1.00
21193;DHT22;10754;51.106;7.164;2023-08-06T15:28:16;19.90;1.00
21193;DHT22;10754;51.106;7.164;2023-08-06T15:30:50;20.00;1.00
21193;DHT22;10754;51.106;7.164;2023-08-06T15:33:17;20.00;1.00
21193;DHT22;10754;51.106;7.164;2023-08-06T15:35:42;19.90;1.00
21193;DHT22;10754;51.106;7.164;2023-08-06T15:38:08;19.80;1.00
21193;DHT22;10754;51.106;7.164;2023-08-06T15:40:33;19.70;1.00
21193;DHT22;10754;51.106;7.164;2023-08-06T15:42:59;19.80;1.00
21193;DHT22;10754;51.106;7.164;2023-08-06T15:45:24;19.80;1.00